sensor_id;sensor_type;location;lat;lon;timestamp;P1;durP1;ratioP1;P2;durP2;ratioP2
74551;SDS011;63025;55.472;38.432;2024-02-16T00:01:00;16.83;;;6.57;;
74551;SDS011;63025;55.472;38.432;2024-02-16T00:03:27;8.13;;;4.05;;
74551;SDS011;63025;55.472;38.432;2024-02-16T00:05:53;15.23;;;6.82;;
74551;SDS011;63025;55.472;38.432;2024-02-16T00:08:19;11.90;;;4.45;;
74551;SDS011;63025;55.472;38.432;2024-02-16T00:10:45;11.23;;;5.10;;
74551;SDS011;63025;55.472;38.432;2024-02-16T00:13:12;16.67;;;5.85;;
74551;SDS011;63025;55.472;38.432;2024-02-16T00:15:38;19.58;;;7.20;;
74551;SDS011;63025;55.472;38.432;2024-02-16T00:18:04;12.20;;;4.80;;
74551;SDS011;63025;55.472;38.432;2024-02-16T00:20:31;12.13;;;4.80;;
74551;SDS011;63025;55.472;38.432;2024-02-16T00:22:57;10.85;;;4.35;;
74551;SDS011;63025;55.472;38.432;2024-02-16T00:25:23;13.80;;;5.10;;
74551;SDS011;63025;55.472;38.432;2024-02-16T00:27:49;11.30;;;4.32;;
74551;SDS011;63025;55.472;38.432;2024-02-16T00:30:18;9.07;;;3.63;;
74551;SDS011;63025;55.472;38.432;2024-02-16T00:32:45;14.48;;;5.70;;
74551;SDS011;63025;55.472;38.432;2024-02-16T00:35:11;12.07;;;4.18;;
74551;SDS011;63025;55.472;38.432;2024-02-16T00:37:37;15.82;;;5.43;;
74551;SDS011;63025;55.472;38.432;2024-02-16T00:40:03;13.02;;;5.45;;
74551;SDS011;63025;55.472;38.432;2024-02-16T00:42:31;10.90;;;4.93;;
74551;SDS011;63025;55.472;38.432;2024-02-16T00:44:57;11.45;;;5.55;;
74551;SDS011;63025;55.472;38.432;2024-02-16T00:47:25;12.10;;;4.93;;
74551;SDS011;63025;55.472;38.432;2024-02-16T00:49:52;12.05;;;5.43;;
74551;SDS011;63025;55.472;38.432;2024-02-16T00:52:18;10.75;;;4.07;;
74551;SDS011;63025;55.472;38.432;2024-02-16T00:54:44;17.50;;;6.93;;
74551;SDS011;63025;55.472;38.432;2024-02-16T00:57:11;17.50;;;7.30;;
74551;SDS011;63025;55.472;38.432;2024-02-16T00:59:39;13.05;;;5.35;;
74551;SDS011;63025;55.472;38.432;2024-02-16T01:02:06;18.27;;;7.80;;
74551;SDS011;63025;55.472;38.432;2024-02-16T01:04:32;11.00;;;4.65;;
74551;SDS011;63025;55.472;38.432;2024-02-16T01:07:01;12.40;;;6.03;;
74551;SDS011;63025;55.472;38.432;2024-02-16T01:09:26;12.82;;;5.07;;
74551;SDS011;63025;55.472;38.432;2024-02-16T01:11:52;14.85;;;4.55;;
74551;SDS011;63025;55.472;38.432;2024-02-16T01:14:18;11.15;;;4.32;;
74551;SDS011;63025;55.472;38.432;2024-02-16T01:16:44;10.38;;;4.07;;
74551;SDS011;63025;55.472;38.432;2024-02-16T01:19:11;11.30;;;4.65;;
74551;SDS011;63025;55.472;38.432;2024-02-16T01:21:36;10.80;;;3.67;;
74551;SDS011;63025;55.472;38.432;2024-02-16T01:24:02;10.77;;;4.47;;
74551;SDS011;63025;55.472;38.432;2024-02-16T01:26:28;15.60;;;5.53;;
74551;SDS011;63025;55.472;38.432;2024-02-16T01:28:54;16.17;;;6.15;;
74551;SDS011;63025;55.472;38.432;2024-02-16T01:31:20;22.38;;;5.60;;
74551;SDS011;63025;55.472;38.432;2024-02-16T01:33:46;14.82;;;5.75;;
74551;SDS011;63025;55.472;38.432;2024-02-16T01:36:12;11.13;;;5.47;;
74551;SDS011;63025;55.472;38.432;2024-02-16T01:38:40;12.23;;;5.07;;
74551;SDS011;63025;55.472;38.432;2024-02-16T01:41:06;10.48;;;4.85;;
74551;SDS011;63025;55.472;38.432;2024-02-16T01:43:34;12.77;;;5.38;;
74551;SDS011;63025;55.472;38.432;2024-02-16T01:46:00;10.68;;;4.72;;
74551;SDS011;63025;55.472;38.432;2024-02-16T01:48:26;12.27;;;4.47;;
74551;SDS011;63025;55.472;38.432;2024-02-16T01:50:52;18.42;;;7.25;;
74551;SDS011;63025;55.472;38.432;2024-02-16T01:53:19;9.63;;;4.03;;
74551;SDS011;63025;55.472;38.432;2024-02-16T01:55:46;12.93;;;4.82;;
74551;SDS011;63025;55.472;38.432;2024-02-16T01:58:12;14.05;;;5.75;;
74551;SDS011;63025;55.472;38.432;2024-02-16T02:00:37;16.52;;;5.40;;
74551;SDS011;63025;55.472;38.432;2024-02-16T02:03:04;9.20;;;3.35;;
74551;SDS011;63025;55.472;38.432;2024-02-16T02:05:31;12.05;;;5.30;;
74551;SDS011;63025;55.472;38.432;2024-02-16T02:07:56;12.10;;;5.38;;
74551;SDS011;63025;55.472;38.432;2024-02-16T02:10:22;9.98;;;4.07;;
74551;SDS011;63025;55.472;38.432;2024-02-16T02:12:48;11.55;;;4.50;;
74551;SDS011;63025;55.472;38.432;2024-02-16T02:15:13;11.05;;;4.90;;
74551;SDS011;63025;55.472;38.432;2024-02-16T02:17:40;26.52;;;6.72;;
74551;SDS011;63025;55.472;38.432;2024-02-16T02:20:06;11.00;;;4.15;;
74551;SDS011;63025;55.472;38.432;2024-02-16T02:22:39;13.60;;;5.78;;
74551;SDS011;63025;55.472;38.432;2024-02-16T02:25:05;17.48;;;6.57;;
74551;SDS011;63025;55.472;38.432;2024-02-16T02:27:31;13.15;;;4.88;;
74551;SDS011;63025;55.472;38.432;2024-02-16T02:29:56;15.40;;;5.60;;
74551;SDS011;63025;55.472;38.432;2024-02-16T02:32:23;9.68;;;4.00;;
74551;SDS011;63025;55.472;38.432;2024-02-16T02:34:49;14.82;;;5.43;;
74551;SDS011;63025;55.472;38.432;2024-02-16T02:37:15;15.75;;;6.15;;
74551;SDS011;63025;55.472;38.432;2024-02-16T02:39:41;12.88;;;5.93;;
74551;SDS011;63025;55.472;38.432;2024-02-16T02:42:07;9.50;;;4.22;;
74551;SDS011;63025;55.472;38.432;2024-02-16T02:44:33;13.20;;;4.22;;
74551;SDS011;63025;55.472;38.432;2024-02-16T02:46:59;11.57;;;4.82;;
74551;SDS011;63025;55.472;38.432;2024-02-16T02:49:25;14.20;;;5.90;;
74551;SDS011;63025;55.472;38.432;2024-02-16T02:51:50;12.63;;;4.93;;
74551;SDS011;63025;55.472;38.432;2024-02-16T02:54:16;16.88;;;6.57;;
74551;SDS011;63025;55.472;38.432;2024-02-16T02:56:42;9.98;;;3.58;;
74551;SDS011;63025;55.472;38.432;2024-02-16T02:59:08;10.45;;;5.00;;
74551;SDS011;63025;55.472;38.432;2024-02-16T03:01:36;12.80;;;5.00;;
74551;SDS011;63025;55.472;38.432;2024-02-16T03:04:02;13.25;;;4.57;;
74551;SDS011;63025;55.472;38.432;2024-02-16T03:06:28;15.85;;;5.75;;
74551;SDS011;63025;55.472;38.432;2024-02-16T03:08:54;13.80;;;5.80;;
74551;SDS011;63025;55.472;38.432;2024-02-16T03:11:20;10.73;;;4.57;;
74551;SDS011;63025;55.472;38.432;2024-02-16T03:13:46;9.52;;;3.70;;
74551;SDS011;63025;55.472;38.432;2024-02-16T03:16:11;14.15;;;5.45;;
74551;SDS011;63025;55.472;38.432;2024-02-16T03:18:37;9.90;;;4.47;;
74551;SDS011;63025;55.472;38.432;2024-02-16T03:21:03;13.25;;;4.80;;
74551;SDS011;63025;55.472;38.432;2024-02-16T03:23:28;10.77;;;3.97;;
74551;SDS011;63025;55.472;38.432;2024-02-16T03:25:54;12.32;;;5.30;;
74551;SDS011;63025;55.472;38.432;2024-02-16T03:28:20;15.93;;;7.20;;
74551;SDS011;63025;55.472;38.432;2024-02-16T03:30:46;13.02;;;5.88;;
74551;SDS011;63025;55.472;38.432;2024-02-16T03:33:12;11.88;;;5.18;;
74551;SDS011;63025;55.472;38.432;2024-02-16T03:35:38;11.93;;;4.70;;
74551;SDS011;63025;55.472;38.432;2024-02-16T03:38:05;18.25;;;6.22;;
74551;SDS011;63025;55.472;38.432;2024-02-16T03:40:31;15.35;;;5.50;;
74551;SDS011;63025;55.472;38.432;2024-02-16T03:42:57;13.27;;;5.00;;
74551;SDS011;63025;55.472;38.432;2024-02-16T03:45:23;9.70;;;4.22;;
74551;SDS011;63025;55.472;38.432;2024-02-16T03:47:49;19.60;;;7.20;;
74551;SDS011;63025;55.472;38.432;2024-02-16T03:50:18;16.23;;;6.85;;
74551;SDS011;63025;55.472;38.432;2024-02-16T03:52:44;23.13;;;7.95;;
74551;SDS011;63025;55.472;38.432;2024-02-16T03:55:10;12.25;;;5.28;;
74551;SDS011;63025;55.472;38.432;2024-02-16T03:57:39;15.88;;;6.13;;
74551;SDS011;63025;55.472;38.432;2024-02-16T04:00:05;17.58;;;6.80;;
74551;SDS011;63025;55.472;38.432;2024-02-16T04:02:38;18.10;;;6.13;;
74551;SDS011;63025;55.472;38.432;2024-02-16T04:05:04;19.48;;;7.32;;
74551;SDS011;63025;55.472;38.432;2024-02-16T04:07:30;11.88;;;5.47;;
74551;SDS011;63025;55.472;38.432;2024-02-16T04:09:56;12.75;;;5.68;;
74551;SDS011;63025;55.472;38.432;2024-02-16T04:12:21;10.77;;;4.72;;
74551;SDS011;63025;55.472;38.432;2024-02-16T04:14:47;14.45;;;5.40;;
74551;SDS011;63025;55.472;38.432;2024-02-16T04:17:13;11.40;;;5.53;;
74551;SDS011;63025;55.472;38.432;2024-02-16T04:19:38;16.90;;;6.78;;
74551;SDS011;63025;55.472;38.432;2024-02-16T04:22:04;11.82;;;5.32;;
74551;SDS011;63025;55.472;38.432;2024-02-16T04:24:30;16.90;;;6.55;;
74551;SDS011;63025;55.472;38.432;2024-02-16T04:26:55;14.20;;;4.85;;
74551;SDS011;63025;55.472;38.432;2024-02-16T04:29:21;16.02;;;6.18;;
74551;SDS011;63025;55.472;38.432;2024-02-16T04:31:47;22.05;;;8.13;;
74551;SDS011;63025;55.472;38.432;2024-02-16T04:34:13;13.80;;;5.18;;
74551;SDS011;63025;55.472;38.432;2024-02-16T04:36:39;16.77;;;6.88;;
74551;SDS011;63025;55.472;38.432;2024-02-16T04:39:05;14.18;;;5.85;;
74551;SDS011;63025;55.472;38.432;2024-02-16T04:41:31;14.10;;;5.00;;
74551;SDS011;63025;55.472;38.432;2024-02-16T04:43:56;18.23;;;7.88;;
74551;SDS011;63025;55.472;38.432;2024-02-16T04:46:23;17.88;;;7.35;;
74551;SDS011;63025;55.472;38.432;2024-02-16T04:48:49;14.98;;;5.82;;
74551;SDS011;63025;55.472;38.432;2024-02-16T04:51:14;12.40;;;5.65;;
74551;SDS011;63025;55.472;38.432;2024-02-16T04:53:40;22.90;;;8.30;;
74551;SDS011;63025;55.472;38.432;2024-02-16T04:56:06;14.25;;;5.95;;
74551;SDS011;63025;55.472;38.432;2024-02-16T04:58:31;17.45;;;6.25;;
74551;SDS011;63025;55.472;38.432;2024-02-16T05:00:57;13.15;;;6.00;;
74551;SDS011;63025;55.472;38.432;2024-02-16T05:03:23;14.48;;;5.22;;
74551;SDS011;63025;55.472;38.432;2024-02-16T05:05:50;19.65;;;8.50;;
74551;SDS011;63025;55.472;38.432;2024-02-16T05:08:17;14.38;;;6.30;;
74551;SDS011;63025;55.472;38.432;2024-02-16T05:10:43;15.68;;;6.93;;
74551;SDS011;63025;55.472;38.432;2024-02-16T05:13:09;14.85;;;5.95;;
74551;SDS011;63025;55.472;38.432;2024-02-16T05:15:36;17.23;;;7.90;;
74551;SDS011;63025;55.472;38.432;2024-02-16T05:18:02;21.15;;;7.95;;
74551;SDS011;63025;55.472;38.432;2024-02-16T05:20:28;17.02;;;7.07;;
74551;SDS011;63025;55.472;38.432;2024-02-16T05:22:53;17.02;;;7.72;;
74551;SDS011;63025;55.472;38.432;2024-02-16T05:25:19;18.85;;;7.43;;
74551;SDS011;63025;55.472;38.432;2024-02-16T05:27:45;18.10;;;8.35;;
74551;SDS011;63025;55.472;38.432;2024-02-16T05:30:12;18.15;;;7.00;;
74551;SDS011;63025;55.472;38.432;2024-02-16T05:32:40;16.67;;;7.00;;
74551;SDS011;63025;55.472;38.432;2024-02-16T05:35:07;18.95;;;8.02;;
74551;SDS011;63025;55.472;38.432;2024-02-16T05:37:37;18.65;;;7.10;;
74551;SDS011;63025;55.472;38.432;2024-02-16T05:40:09;15.88;;;6.93;;
74551;SDS011;63025;55.472;38.432;2024-02-16T05:42:47;13.00;;;6.05;;
74551;SDS011;63025;55.472;38.432;2024-02-16T05:45:13;14.88;;;6.03;;
74551;SDS011;63025;55.472;38.432;2024-02-16T05:47:40;23.70;;;9.07;;
74551;SDS011;63025;55.472;38.432;2024-02-16T05:50:08;19.70;;;7.93;;
74551;SDS011;63025;55.472;38.432;2024-02-16T05:52:34;25.08;;;9.15;;
74551;SDS011;63025;55.472;38.432;2024-02-16T05:55:00;20.20;;;7.80;;
74551;SDS011;63025;55.472;38.432;2024-02-16T05:57:26;17.13;;;6.63;;
74551;SDS011;63025;55.472;38.432;2024-02-16T05:59:51;18.27;;;8.13;;
74551;SDS011;63025;55.472;38.432;2024-02-16T06:02:17;24.15;;;9.70;;
74551;SDS011;63025;55.472;38.432;2024-02-16T06:04:43;19.45;;;6.85;;
74551;SDS011;63025;55.472;38.432;2024-02-16T06:07:09;14.50;;;6.88;;
74551;SDS011;63025;55.472;38.432;2024-02-16T06:09:36;20.85;;;8.65;;
74551;SDS011;63025;55.472;38.432;2024-02-16T06:12:03;26.67;;;10.65;;
74551;SDS011;63025;55.472;38.432;2024-02-16T06:14:32;25.08;;;10.02;;
74551;SDS011;63025;55.472;38.432;2024-02-16T06:16:59;21.20;;;9.00;;
74551;SDS011;63025;55.472;38.432;2024-02-16T06:19:25;22.67;;;9.48;;
74551;SDS011;63025;55.472;38.432;2024-02-16T06:21:52;23.80;;;8.93;;
74551;SDS011;63025;55.472;38.432;2024-02-16T06:24:20;25.98;;;10.23;;
74551;SDS011;63025;55.472;38.432;2024-02-16T06:26:46;20.55;;;8.00;;
74551;SDS011;63025;55.472;38.432;2024-02-16T06:29:13;22.60;;;9.10;;
74551;SDS011;63025;55.472;38.432;2024-02-16T06:31:39;18.88;;;7.20;;
74551;SDS011;63025;55.472;38.432;2024-02-16T06:34:04;25.30;;;9.52;;
74551;SDS011;63025;55.472;38.432;2024-02-16T06:36:30;23.25;;;9.45;;
74551;SDS011;63025;55.472;38.432;2024-02-16T06:38:56;19.90;;;8.05;;
74551;SDS011;63025;55.472;38.432;2024-02-16T06:41:21;21.73;;;8.77;;
74551;SDS011;63025;55.472;38.432;2024-02-16T06:43:47;14.55;;;6.82;;
74551;SDS011;63025;55.472;38.432;2024-02-16T06:46:13;18.13;;;7.70;;
74551;SDS011;63025;55.472;38.432;2024-02-16T06:48:38;17.00;;;7.45;;
74551;SDS011;63025;55.472;38.432;2024-02-16T06:51:04;25.58;;;8.95;;
74551;SDS011;63025;55.472;38.432;2024-02-16T06:53:30;17.55;;;7.32;;
74551;SDS011;63025;55.472;38.432;2024-02-16T06:55:55;19.65;;;8.70;;
74551;SDS011;63025;55.472;38.432;2024-02-16T06:58:21;20.67;;;8.68;;
74551;SDS011;63025;55.472;38.432;2024-02-16T07:00:47;17.30;;;7.22;;
74551;SDS011;63025;55.472;38.432;2024-02-16T07:03:13;19.15;;;7.82;;
74551;SDS011;63025;55.472;38.432;2024-02-16T07:05:38;20.38;;;8.18;;
74551;SDS011;63025;55.472;38.432;2024-02-16T07:08:05;18.42;;;7.40;;
74551;SDS011;63025;55.472;38.432;2024-02-16T07:10:32;19.02;;;6.72;;
74551;SDS011;63025;55.472;38.432;2024-02-16T07:12:59;28.35;;;10.82;;
74551;SDS011;63025;55.472;38.432;2024-02-16T07:15:25;23.55;;;8.77;;
74551;SDS011;63025;55.472;38.432;2024-02-16T07:17:52;27.83;;;10.73;;
74551;SDS011;63025;55.472;38.432;2024-02-16T07:20:20;16.42;;;8.00;;
74551;SDS011;63025;55.472;38.432;2024-02-16T07:22:46;17.58;;;7.55;;
74551;SDS011;63025;55.472;38.432;2024-02-16T07:25:12;19.95;;;8.55;;
74551;SDS011;63025;55.472;38.432;2024-02-16T07:27:38;18.30;;;7.18;;
74551;SDS011;63025;55.472;38.432;2024-02-16T07:30:04;20.23;;;9.88;;
74551;SDS011;63025;55.472;38.432;2024-02-16T07:32:30;26.52;;;11.68;;
74551;SDS011;63025;55.472;38.432;2024-02-16T07:34:56;17.90;;;7.88;;
74551;SDS011;63025;55.472;38.432;2024-02-16T07:37:22;20.75;;;8.35;;
74551;SDS011;63025;55.472;38.432;2024-02-16T07:39:47;15.27;;;6.82;;
74551;SDS011;63025;55.472;38.432;2024-02-16T07:42:13;22.77;;;9.77;;
74551;SDS011;63025;55.472;38.432;2024-02-16T07:44:39;19.25;;;7.63;;
74551;SDS011;63025;55.472;38.432;2024-02-16T07:47:05;21.65;;;8.70;;
74551;SDS011;63025;55.472;38.432;2024-02-16T07:49:31;27.15;;;10.63;;
74551;SDS011;63025;55.472;38.432;2024-02-16T07:51:57;14.95;;;6.50;;
74551;SDS011;63025;55.472;38.432;2024-02-16T07:54:25;16.42;;;6.20;;
74551;SDS011;63025;55.472;38.432;2024-02-16T07:56:51;17.02;;;6.95;;
74551;SDS011;63025;55.472;38.432;2024-02-16T07:59:16;22.90;;;8.45;;
74551;SDS011;63025;55.472;38.432;2024-02-16T08:01:44;19.35;;;9.18;;
74551;SDS011;63025;55.472;38.432;2024-02-16T08:04:10;20.27;;;7.55;;
74551;SDS011;63025;55.472;38.432;2024-02-16T08:06:36;22.63;;;10.07;;
74551;SDS011;63025;55.472;38.432;2024-02-16T08:09:02;22.05;;;9.50;;
74551;SDS011;63025;55.472;38.432;2024-02-16T08:11:29;17.77;;;6.53;;
74551;SDS011;63025;55.472;38.432;2024-02-16T08:13:55;26.10;;;10.38;;
74551;SDS011;63025;55.472;38.432;2024-02-16T08:16:26;16.23;;;8.00;;
74551;SDS011;63025;55.472;38.432;2024-02-16T08:18:52;20.08;;;8.98;;
74551;SDS011;63025;55.472;38.432;2024-02-16T08:21:18;20.60;;;9.05;;
74551;SDS011;63025;55.472;38.432;2024-02-16T08:23:43;21.35;;;8.10;;
74551;SDS011;63025;55.472;38.432;2024-02-16T08:26:09;25.08;;;10.50;;
74551;SDS011;63025;55.472;38.432;2024-02-16T08:28:34;16.33;;;7.85;;
74551;SDS011;63025;55.472;38.432;2024-02-16T08:31:00;23.08;;;9.88;;
74551;SDS011;63025;55.472;38.432;2024-02-16T08:33:26;26.13;;;10.55;;
74551;SDS011;63025;55.472;38.432;2024-02-16T08:35:51;23.50;;;10.63;;
74551;SDS011;63025;55.472;38.432;2024-02-16T08:38:17;20.35;;;8.32;;
74551;SDS011;63025;55.472;38.432;2024-02-16T08:40:43;25.70;;;11.20;;
74551;SDS011;63025;55.472;38.432;2024-02-16T08:43:09;23.23;;;10.30;;
74551;SDS011;63025;55.472;38.432;2024-02-16T08:45:34;20.63;;;8.68;;
74551;SDS011;63025;55.472;38.432;2024-02-16T08:48:00;24.50;;;10.15;;
74551;SDS011;63025;55.472;38.432;2024-02-16T08:50:29;16.85;;;7.35;;
74551;SDS011;63025;55.472;38.432;2024-02-16T08:52:55;32.13;;;12.32;;
74551;SDS011;63025;55.472;38.432;2024-02-16T08:55:20;19.58;;;7.60;;
74551;SDS011;63025;55.472;38.432;2024-02-16T08:57:46;19.17;;;8.93;;
74551;SDS011;63025;55.472;38.432;2024-02-16T09:00:13;26.85;;;11.02;;
74551;SDS011;63025;55.472;38.432;2024-02-16T09:02:40;25.80;;;9.82;;
74551;SDS011;63025;55.472;38.432;2024-02-16T09:05:06;25.38;;;10.55;;
74551;SDS011;63025;55.472;38.432;2024-02-16T09:07:35;23.63;;;10.15;;
74551;SDS011;63025;55.472;38.432;2024-02-16T09:10:00;29.05;;;10.15;;
74551;SDS011;63025;55.472;38.432;2024-02-16T09:12:26;21.33;;;7.85;;
74551;SDS011;63025;55.472;38.432;2024-02-16T09:14:52;26.77;;;10.63;;
74551;SDS011;63025;55.472;38.432;2024-02-16T09:17:18;24.70;;;10.95;;
74551;SDS011;63025;55.472;38.432;2024-02-16T09:19:45;22.55;;;8.32;;
74551;SDS011;63025;55.472;38.432;2024-02-16T09:22:11;26.48;;;9.30;;
74551;SDS011;63025;55.472;38.432;2024-02-16T09:24:37;20.83;;;8.90;;
74551;SDS011;63025;55.472;38.432;2024-02-16T09:27:03;17.75;;;7.60;;
74551;SDS011;63025;55.472;38.432;2024-02-16T09:29:30;23.67;;;9.60;;
74551;SDS011;63025;55.472;38.432;2024-02-16T09:31:56;17.60;;;7.03;;
74551;SDS011;63025;55.472;38.432;2024-02-16T09:34:22;16.48;;;6.68;;
74551;SDS011;63025;55.472;38.432;2024-02-16T09:36:47;14.77;;;7.10;;
74551;SDS011;63025;55.472;38.432;2024-02-16T09:39:13;25.20;;;8.95;;
74551;SDS011;63025;55.472;38.432;2024-02-16T09:41:41;29.52;;;11.13;;
74551;SDS011;63025;55.472;38.432;2024-02-16T09:44:11;19.80;;;8.63;;
74551;SDS011;63025;55.472;38.432;2024-02-16T09:46:37;22.73;;;8.50;;
74551;SDS011;63025;55.472;38.432;2024-02-16T09:49:03;18.10;;;7.75;;
74551;SDS011;63025;55.472;38.432;2024-02-16T09:51:30;19.75;;;7.90;;
74551;SDS011;63025;55.472;38.432;2024-02-16T09:53:56;18.90;;;8.20;;
74551;SDS011;63025;55.472;38.432;2024-02-16T09:56:22;24.33;;;9.73;;
74551;SDS011;63025;55.472;38.432;2024-02-16T09:58:52;23.08;;;9.27;;
74551;SDS011;63025;55.472;38.432;2024-02-16T10:01:23;21.70;;;9.32;;
74551;SDS011;63025;55.472;38.432;2024-02-16T10:03:49;17.90;;;7.13;;
74551;SDS011;63025;55.472;38.432;2024-02-16T10:06:16;20.40;;;8.73;;
74551;SDS011;63025;55.472;38.432;2024-02-16T10:11:18;25.35;;;10.05;;
74551;SDS011;63025;55.472;38.432;2024-02-16T10:13:55;19.63;;;8.73;;
74551;SDS011;63025;55.472;38.432;2024-02-16T10:16:21;21.50;;;8.57;;
74551;SDS011;63025;55.472;38.432;2024-02-16T10:18:47;26.15;;;10.15;;
74551;SDS011;63025;55.472;38.432;2024-02-16T10:21:13;22.92;;;9.70;;
74551;SDS011;63025;55.472;38.432;2024-02-16T10:23:39;30.13;;;10.98;;
74551;SDS011;63025;55.472;38.432;2024-02-16T10:26:04;26.88;;;10.68;;
74551;SDS011;63025;55.472;38.432;2024-02-16T10:28:30;29.00;;;10.18;;
74551;SDS011;63025;55.472;38.432;2024-02-16T10:30:57;26.75;;;10.13;;
74551;SDS011;63025;55.472;38.432;2024-02-16T10:33:27;22.60;;;8.93;;
74551;SDS011;63025;55.472;38.432;2024-02-16T10:35:58;24.15;;;9.77;;
74551;SDS011;63025;55.472;38.432;2024-02-16T10:38:25;22.65;;;9.82;;
74551;SDS011;63025;55.472;38.432;2024-02-16T10:40:52;24.90;;;9.63;;
74551;SDS011;63025;55.472;38.432;2024-02-16T10:43:18;22.85;;;9.65;;
74551;SDS011;63025;55.472;38.432;2024-02-16T10:45:46;22.08;;;9.85;;
74551;SDS011;63025;55.472;38.432;2024-02-16T10:48:14;15.27;;;7.05;;
74551;SDS011;63025;55.472;38.432;2024-02-16T10:50:40;18.63;;;6.13;;
74551;SDS011;63025;55.472;38.432;2024-02-16T10:53:11;18.23;;;9.02;;
74551;SDS011;63025;55.472;38.432;2024-02-16T10:55:41;27.42;;;10.43;;
74551;SDS011;63025;55.472;38.432;2024-02-16T10:58:10;17.02;;;7.03;;
74551;SDS011;63025;55.472;38.432;2024-02-16T11:00:49;15.85;;;6.93;;
74551;SDS011;63025;55.472;38.432;2024-02-16T11:03:22;18.20;;;7.43;;
74551;SDS011;63025;55.472;38.432;2024-02-16T11:05:50;18.70;;;7.45;;
74551;SDS011;63025;55.472;38.432;2024-02-16T11:08:17;19.55;;;8.63;;
74551;SDS011;63025;55.472;38.432;2024-02-16T11:10:57;19.88;;;8.27;;
74551;SDS011;63025;55.472;38.432;2024-02-16T11:13:24;17.88;;;6.95;;
74551;SDS011;63025;55.472;38.432;2024-02-16T11:15:57;17.77;;;7.57;;
74551;SDS011;63025;55.472;38.432;2024-02-16T11:18:32;19.77;;;8.55;;
74551;SDS011;63025;55.472;38.432;2024-02-16T11:21:03;16.25;;;6.18;;
74551;SDS011;63025;55.472;38.432;2024-02-16T11:23:29;13.55;;;6.13;;
74551;SDS011;63025;55.472;38.432;2024-02-16T11:26:00;16.42;;;7.10;;
74551;SDS011;63025;55.472;38.432;2024-02-16T11:28:27;28.40;;;9.95;;
74551;SDS011;63025;55.472;38.432;2024-02-16T11:30:54;17.15;;;7.03;;
74551;SDS011;63025;55.472;38.432;2024-02-16T11:33:19;17.73;;;8.02;;
74551;SDS011;63025;55.472;38.432;2024-02-16T11:36:04;17.77;;;7.63;;
74551;SDS011;63025;55.472;38.432;2024-02-16T11:38:31;20.80;;;7.97;;
74551;SDS011;63025;55.472;38.432;2024-02-16T11:41:04;24.38;;;9.55;;
74551;SDS011;63025;55.472;38.432;2024-02-16T11:43:36;23.38;;;9.00;;
74551;SDS011;63025;55.472;38.432;2024-02-16T11:46:14;19.42;;;7.93;;
74551;SDS011;63025;55.472;38.432;2024-02-16T11:48:42;16.48;;;6.60;;
74551;SDS011;63025;55.472;38.432;2024-02-16T11:51:08;28.80;;;11.63;;
74551;SDS011;63025;55.472;38.432;2024-02-16T11:53:34;17.88;;;6.78;;
74551;SDS011;63025;55.472;38.432;2024-02-16T11:55:59;18.45;;;8.30;;
74551;SDS011;63025;55.472;38.432;2024-02-16T11:58:41;22.35;;;8.55;;
74551;SDS011;63025;55.472;38.432;2024-02-16T12:01:10;29.30;;;10.38;;
74551;SDS011;63025;55.472;38.432;2024-02-16T12:03:36;20.90;;;7.85;;
74551;SDS011;63025;55.472;38.432;2024-02-16T12:06:01;24.73;;;9.55;;
74551;SDS011;63025;55.472;38.432;2024-02-16T12:08:33;23.75;;;9.13;;
74551;SDS011;63025;55.472;38.432;2024-02-16T12:13:27;21.83;;;8.40;;
74551;SDS011;63025;55.472;38.432;2024-02-16T12:15:53;29.80;;;10.23;;
74551;SDS011;63025;55.472;38.432;2024-02-16T12:18:27;25.00;;;9.70;;
74551;SDS011;63025;55.472;38.432;2024-02-16T12:21:04;31.00;;;10.80;;
74551;SDS011;63025;55.472;38.432;2024-02-16T12:23:31;26.30;;;9.77;;
74551;SDS011;63025;55.472;38.432;2024-02-16T12:26:01;20.08;;;8.60;;
74551;SDS011;63025;55.472;38.432;2024-02-16T12:28:28;27.23;;;10.05;;
74551;SDS011;63025;55.472;38.432;2024-02-16T12:30:58;18.85;;;7.00;;
74551;SDS011;63025;55.472;38.432;2024-02-16T12:33:24;19.10;;;8.20;;
74551;SDS011;63025;55.472;38.432;2024-02-16T12:35:50;19.20;;;6.90;;
74551;SDS011;63025;55.472;38.432;2024-02-16T12:38:16;16.23;;;6.47;;
74551;SDS011;63025;55.472;38.432;2024-02-16T12:40:45;20.90;;;7.30;;
74551;SDS011;63025;55.472;38.432;2024-02-16T12:43:11;23.40;;;8.52;;
74551;SDS011;63025;55.472;38.432;2024-02-16T12:45:38;20.67;;;8.25;;
74551;SDS011;63025;55.472;38.432;2024-02-16T12:48:05;19.88;;;7.93;;
74551;SDS011;63025;55.472;38.432;2024-02-16T12:50:31;21.63;;;7.88;;
74551;SDS011;63025;55.472;38.432;2024-02-16T12:52:57;18.25;;;7.72;;
74551;SDS011;63025;55.472;38.432;2024-02-16T12:55:23;14.75;;;5.47;;
74551;SDS011;63025;55.472;38.432;2024-02-16T12:57:50;21.25;;;5.82;;
74551;SDS011;63025;55.472;38.432;2024-02-16T13:00:16;17.23;;;7.75;;
74551;SDS011;63025;55.472;38.432;2024-02-16T13:02:43;15.18;;;6.38;;
74551;SDS011;63025;55.472;38.432;2024-02-16T13:05:09;20.75;;;7.88;;
74551;SDS011;63025;55.472;38.432;2024-02-16T13:07:36;17.55;;;7.25;;
74551;SDS011;63025;55.472;38.432;2024-02-16T13:10:04;18.33;;;6.05;;
74551;SDS011;63025;55.472;38.432;2024-02-16T13:12:30;20.75;;;6.88;;
74551;SDS011;63025;55.472;38.432;2024-02-16T13:14:57;14.43;;;6.30;;
74551;SDS011;63025;55.472;38.432;2024-02-16T13:17:23;24.60;;;8.32;;
74551;SDS011;63025;55.472;38.432;2024-02-16T13:19:48;18.95;;;6.88;;
74551;SDS011;63025;55.472;38.432;2024-02-16T13:22:14;22.90;;;9.82;;
74551;SDS011;63025;55.472;38.432;2024-02-16T13:24:40;22.00;;;8.00;;
74551;SDS011;63025;55.472;38.432;2024-02-16T13:27:06;20.75;;;8.20;;
74551;SDS011;63025;55.472;38.432;2024-02-16T13:29:32;20.00;;;7.07;;
74551;SDS011;63025;55.472;38.432;2024-02-16T13:31:58;24.45;;;9.02;;
74551;SDS011;63025;55.472;38.432;2024-02-16T13:34:25;21.85;;;8.38;;
74551;SDS011;63025;55.472;38.432;2024-02-16T13:36:52;22.13;;;6.32;;
74551;SDS011;63025;55.472;38.432;2024-02-16T13:39:18;13.90;;;5.20;;
74551;SDS011;63025;55.472;38.432;2024-02-16T13:41:45;18.50;;;8.32;;
74551;SDS011;63025;55.472;38.432;2024-02-16T13:44:13;15.77;;;5.97;;
74551;SDS011;63025;55.472;38.432;2024-02-16T13:46:39;20.65;;;7.22;;
74551;SDS011;63025;55.472;38.432;2024-02-16T13:49:05;16.55;;;5.57;;
74551;SDS011;63025;55.472;38.432;2024-02-16T13:51:30;17.23;;;5.78;;
74551;SDS011;63025;55.472;38.432;2024-02-16T13:53:56;17.00;;;7.00;;
74551;SDS011;63025;55.472;38.432;2024-02-16T13:56:22;15.75;;;6.57;;
74551;SDS011;63025;55.472;38.432;2024-02-16T13:58:48;19.13;;;6.15;;
74551;SDS011;63025;55.472;38.432;2024-02-16T14:01:14;12.70;;;6.35;;
74551;SDS011;63025;55.472;38.432;2024-02-16T14:03:40;17.80;;;6.38;;
74551;SDS011;63025;55.472;38.432;2024-02-16T14:06:06;15.25;;;5.95;;
74551;SDS011;63025;55.472;38.432;2024-02-16T14:08:33;14.27;;;5.95;;
74551;SDS011;63025;55.472;38.432;2024-02-16T14:10:58;21.90;;;8.85;;
74551;SDS011;63025;55.472;38.432;2024-02-16T14:13:24;15.35;;;6.53;;
74551;SDS011;63025;55.472;38.432;2024-02-16T14:15:50;18.77;;;6.57;;
74551;SDS011;63025;55.472;38.432;2024-02-16T14:18:16;18.42;;;7.10;;
74551;SDS011;63025;55.472;38.432;2024-02-16T14:20:42;26.63;;;8.73;;
74551;SDS011;63025;55.472;38.432;2024-02-16T14:23:07;15.48;;;6.88;;